createdAt,value
2018-10-11T00:01:06.897Z,9.24
2018-10-11T00:03:36.292Z,9.11
2018-10-11T00:06:05.715Z,9.08
2018-10-11T00:08:35.381Z,9.04
2018-10-11T00:11:04.803Z,8.86
2018-10-11T00:13:34.221Z,8.86
2018-10-11T00:16:03.645Z,8.82
2018-10-11T00:18:33.971Z,8.81
2018-10-11T00:21:03.400Z,8.77
2018-10-11T00:23:34.069Z,8.72
2018-10-11T00:26:03.494Z,8.67
2018-10-11T00:28:34.128Z,8.71
2018-10-11T00:31:03.576Z,8.69
2018-10-11T00:33:34.161Z,8.65
2018-10-11T00:36:03.599Z,8.61
2018-10-11T00:38:34.020Z,8.61
2018-10-11T00:41:03.452Z,8.56
2018-10-11T00:43:34.100Z,8.59
2018-10-11T00:46:03.496Z,8.50
2018-10-11T00:48:34.015Z,8.45
2018-10-11T00:51:03.440Z,8.43
2018-10-11T00:53:34.080Z,8.38
2018-10-11T00:56:03.464Z,8.40
2018-10-11T00:58:34.100Z,8.33
2018-10-11T01:01:03.495Z,8.27
2018-10-11T01:03:34.159Z,8.29
2018-10-11T01:06:03.627Z,8.26
2018-10-11T01:08:34.263Z,8.18
2018-10-11T01:11:03.675Z,8.14
2018-10-11T01:13:34.420Z,8.06
2018-10-11T01:16:03.808Z,8.04
2018-10-11T01:18:34.215Z,7.87
2018-10-11T01:21:03.646Z,7.93
2018-10-11T01:23:34.290Z,7.90
2018-10-11T01:26:03.680Z,7.83
2018-10-11T01:28:34.326Z,7.76
2018-10-11T01:31:08.875Z,7.79
2018-10-11T01:33:38.562Z,7.80
2018-10-11T01:36:08.016Z,7.79
2018-10-11T01:38:37.440Z,7.78
2018-10-11T01:41:07.240Z,7.80
2018-10-11T01:43:36.651Z,7.82
2018-10-11T01:46:06.091Z,7.82
2018-10-11T01:48:35.515Z,7.81
2018-10-11T01:51:04.923Z,7.74
2018-10-11T01:53:34.647Z,7.68
2018-10-11T01:56:04.067Z,7.73
2018-10-11T01:58:34.467Z,7.68
2018-10-11T02:01:03.870Z,7.68
2018-10-11T02:03:34.526Z,7.71
2018-10-11T02:06:03.948Z,7.64
2018-10-11T02:08:34.595Z,7.64
2018-10-11T02:11:04.052Z,7.50
2018-10-11T02:13:34.608Z,7.53
2018-10-11T02:16:04.012Z,7.52
2018-10-11T02:18:34.638Z,7.49
2018-10-11T02:21:04.043Z,7.51
2018-10-11T02:23:34.804Z,7.56
2018-10-11T02:26:04.216Z,7.40
2018-10-11T02:28:34.664Z,7.60
2018-10-11T02:31:04.082Z,7.58
2018-10-11T02:33:34.607Z,7.55
2018-10-11T02:36:04.021Z,7.51
2018-10-11T02:38:34.651Z,7.57
2018-10-11T02:41:04.060Z,7.52
2018-10-11T02:43:34.688Z,7.50
2018-10-11T02:46:04.108Z,7.47
2018-10-11T02:48:34.640Z,7.39
2018-10-11T02:51:04.021Z,7.40
2018-10-11T02:53:34.999Z,7.36
2018-10-11T02:56:05.212Z,7.30
2018-10-11T02:58:51.900Z,7.31
2018-10-11T03:01:21.632Z,7.20
2018-10-11T03:03:57.576Z,7.16
2018-10-11T03:06:27.031Z,6.77
2018-10-11T03:08:56.493Z,6.74
2018-10-11T03:11:25.927Z,6.62
2018-10-11T03:13:55.534Z,6.57
2018-10-11T03:16:24.943Z,6.56
2018-10-11T03:18:54.351Z,6.54
2018-10-11T03:21:23.767Z,6.53
2018-10-11T03:23:53.163Z,6.50
2018-10-11T03:26:22.636Z,6.48
2018-10-11T03:28:52.044Z,6.51
2018-10-11T03:31:21.442Z,6.57
2018-10-11T03:33:50.855Z,6.62
2018-10-11T03:36:20.237Z,6.63
2018-10-11T03:38:49.628Z,6.61
2018-10-11T03:41:19.064Z,6.59
2018-10-11T03:43:48.480Z,6.57
2018-10-11T03:46:17.929Z,6.54
2018-10-11T03:48:47.316Z,6.44
2018-10-11T03:51:16.719Z,6.44
2018-10-11T03:53:46.144Z,6.39
2018-10-11T03:56:15.632Z,6.44
2018-10-11T03:58:45.163Z,6.41
2018-10-11T04:01:14.599Z,6.40
2018-10-11T04:03:44.147Z,6.41
2018-10-11T04:06:13.575Z,6.35
2018-10-11T04:08:42.968Z,6.36
2018-10-11T04:11:12.364Z,6.35
2018-10-11T04:13:41.820Z,6.31
2018-10-11T04:16:11.212Z,6.33
2018-10-11T04:18:40.935Z,6.36
2018-10-11T04:21:10.924Z,6.37
2018-10-11T04:23:40.328Z,6.33
2018-10-11T04:26:09.728Z,6.33
2018-10-11T04:28:39.124Z,6.31
2018-10-11T04:31:08.667Z,6.24
2018-10-11T04:33:38.107Z,6.26
2018-10-11T04:36:07.587Z,6.27
2018-10-11T04:38:36.978Z,6.33
2018-10-11T04:41:07.043Z,6.27
2018-10-11T04:43:36.575Z,6.15
2018-10-11T04:46:05.979Z,6.16
2018-10-11T04:48:35.452Z,6.17
2018-10-11T04:51:04.988Z,6.13
2018-10-11T04:53:35.772Z,6.17
2018-10-11T04:56:05.104Z,6.13
2018-10-11T04:58:35.623Z,6.06
2018-10-11T05:01:05.047Z,6.04
2018-10-11T05:03:35.742Z,6.00
2018-10-11T05:06:05.287Z,5.97
2018-10-11T05:08:35.667Z,5.79
2018-10-11T05:11:05.127Z,5.75
2018-10-11T05:13:41.599Z,5.77
2018-10-11T05:16:11.087Z,5.77
2018-10-11T05:18:42.792Z,5.72
2018-10-11T05:21:12.235Z,5.65
2018-10-11T05:23:42.612Z,5.69
2018-10-11T05:26:12.105Z,5.65
2018-10-11T05:28:41.928Z,5.69
2018-10-11T05:31:12.045Z,5.71
2018-10-11T05:33:42.618Z,5.76
2018-10-11T05:36:12.483Z,5.79
2018-10-11T05:38:42.064Z,5.81
2018-10-11T05:41:11.887Z,5.81
2018-10-11T05:43:41.620Z,5.86
2018-10-11T05:46:20.219Z,5.85
2018-10-11T05:48:49.664Z,5.83
2018-10-11T05:51:19.837Z,5.81
2018-10-11T05:53:49.431Z,5.77
2018-10-11T05:56:20.389Z,5.80
2018-10-11T05:58:51.199Z,5.81
2018-10-11T06:01:20.922Z,5.75
2018-10-11T06:03:50.411Z,5.70
2018-10-11T06:06:19.936Z,5.73
2018-10-11T06:08:49.438Z,5.73
2018-10-11T06:11:19.283Z,5.76
2018-10-11T06:13:49.517Z,5.76
2018-10-11T06:16:18.980Z,5.85
2018-10-11T06:18:48.448Z,5.87
2018-10-11T06:21:17.869Z,5.88
2018-10-11T06:23:47.287Z,5.89
2018-10-11T06:26:16.708Z,5.95
2018-10-11T06:28:46.145Z,6.03
2018-10-11T06:31:15.700Z,6.09
2018-10-11T06:33:45.539Z,6.11
2018-10-11T06:36:15.652Z,6.17
2018-10-11T06:38:45.432Z,6.24
2018-10-11T06:41:15.045Z,6.29
2018-10-11T06:43:44.580Z,6.34
2018-10-11T06:46:14.412Z,6.45
2018-10-11T06:48:43.856Z,6.48
2018-10-11T06:51:13.336Z,6.59
2018-10-11T06:53:42.855Z,6.48
2018-10-11T06:56:12.244Z,6.53
2018-10-11T06:58:41.651Z,6.56
2018-10-11T07:01:11.075Z,6.57
2018-10-11T07:03:40.457Z,6.65
2018-10-11T07:06:09.860Z,6.73
2018-10-11T07:08:39.270Z,6.89
2018-10-11T07:11:09.048Z,6.91
2018-10-11T07:13:38.564Z,7.01
2018-10-11T07:16:07.980Z,7.05
2018-10-11T07:18:37.435Z,7.10
2018-10-11T07:21:06.824Z,7.22
2018-10-11T07:23:36.263Z,7.20
2018-10-11T07:26:05.704Z,7.22
2018-10-11T07:28:36.271Z,7.30
2018-10-11T07:31:05.669Z,7.41
2018-10-11T07:33:36.192Z,7.54
2018-10-11T07:36:05.576Z,7.56
2018-10-11T07:38:36.123Z,7.56
2018-10-11T07:41:05.615Z,7.74
2018-10-11T07:43:36.288Z,7.90
2018-10-11T07:46:05.676Z,7.96
2018-10-11T07:48:36.104Z,8.02
2018-10-11T07:51:05.499Z,8.18
2018-10-11T07:53:36.196Z,8.15
2018-10-11T07:56:05.603Z,8.08
2018-10-11T07:58:36.139Z,8.10
2018-10-11T08:01:05.588Z,8.12
2018-10-11T08:03:36.199Z,8.30
2018-10-11T08:06:06.019Z,8.49
2018-10-11T08:08:36.116Z,8.67
2018-10-11T08:11:05.780Z,8.87
2018-10-11T08:13:36.295Z,9.09
2018-10-11T08:16:06.316Z,9.32
2018-10-11T08:18:36.294Z,9.52
2018-10-11T08:21:05.644Z,9.73
2018-10-11T08:23:36.651Z,9.95
2018-10-11T08:26:06.303Z,10.17
2018-10-11T08:28:36.444Z,10.35
2018-10-11T08:31:05.964Z,10.54
2018-10-11T08:33:36.358Z,10.54
2018-10-11T08:36:05.895Z,10.77
2018-10-11T08:38:36.444Z,10.99
2018-10-11T08:41:05.909Z,11.19
2018-10-11T08:43:36.457Z,11.37
2018-10-11T08:46:05.971Z,11.53
2018-10-11T08:48:36.332Z,11.72
2018-10-11T08:51:05.828Z,11.94
2018-10-11T08:53:36.610Z,12.15
2018-10-11T08:56:06.238Z,12.32
2018-10-11T08:58:36.503Z,12.49
2018-10-11T09:01:06.003Z,12.72
2018-10-11T09:03:36.638Z,12.99
2018-10-11T09:06:05.967Z,13.19
2018-10-11T09:08:36.616Z,13.33
2018-10-11T09:11:06.408Z,13.45
2018-10-11T09:13:36.552Z,13.70
2018-10-11T09:16:05.967Z,13.92
2018-10-11T09:18:36.548Z,14.15
2018-10-11T09:21:06.647Z,14.40
2018-10-11T09:23:36.599Z,14.65
2018-10-11T09:26:06.391Z,14.86
2018-10-11T09:28:36.575Z,15.09
2018-10-11T09:31:06.205Z,15.12
2018-10-11T09:33:36.521Z,15.38
2018-10-11T09:36:06.029Z,15.51
2018-10-11T09:38:36.564Z,15.72
2018-10-11T09:41:06.184Z,15.96
2018-10-11T09:43:36.584Z,16.20
2018-10-11T09:46:06.063Z,16.42
2018-10-11T09:48:36.607Z,16.59
2018-10-11T09:51:05.984Z,16.69
2018-10-11T09:53:36.648Z,16.86
2018-10-11T09:56:06.404Z,17.06
2018-10-11T09:58:36.566Z,17.22
2018-10-11T10:01:11.200Z,17.28
2018-10-11T10:03:40.628Z,17.43
2018-10-11T10:06:10.071Z,17.53
2018-10-11T10:08:39.550Z,17.60
2018-10-11T10:11:09.168Z,17.74
2018-10-11T10:13:38.760Z,17.92
2018-10-11T10:16:08.239Z,17.96
2018-10-11T10:18:37.677Z,18.18
2018-10-11T10:21:07.140Z,18.26
2018-10-11T10:23:36.824Z,18.41
2018-10-11T10:26:06.253Z,18.63
2018-10-11T10:28:36.900Z,18.85
2018-10-11T10:31:06.324Z,19.05
2018-10-11T10:33:36.732Z,19.22
2018-10-11T10:36:06.244Z,19.27
2018-10-11T10:38:36.764Z,19.34
2018-10-11T10:41:06.199Z,19.51
2018-10-11T10:43:36.997Z,19.61
2018-10-11T10:46:06.419Z,19.64
2018-10-11T10:48:36.820Z,19.66
2018-10-11T10:51:06.175Z,19.77
2018-10-11T10:53:36.865Z,19.85
2018-10-11T10:56:06.900Z,19.69
2018-10-11T10:58:36.861Z,19.63
2018-10-11T11:01:06.295Z,19.53
2018-10-11T11:03:36.867Z,19.68
2018-10-11T11:06:06.328Z,19.86
2018-10-11T11:08:37.013Z,19.88
2018-10-11T11:11:06.731Z,20.06
2018-10-11T11:13:36.844Z,20.31
2018-10-11T11:16:06.284Z,20.47
2018-10-11T11:18:36.843Z,20.69
2018-10-11T11:21:06.573Z,20.57
2018-10-11T11:23:36.871Z,20.57
2018-10-11T11:26:06.316Z,20.89
2018-10-11T11:28:36.869Z,21.15
2018-10-11T11:31:06.324Z,20.92
2018-10-11T11:33:36.895Z,21.46
2018-10-11T11:36:06.316Z,21.77
2018-10-11T11:38:36.764Z,21.83
2018-10-11T11:41:06.204Z,22.08
2018-10-11T11:43:36.891Z,22.02
2018-10-11T11:46:06.432Z,22.47
2018-10-11T11:48:36.910Z,22.58
2018-10-11T11:51:06.895Z,23.10
2018-10-11T11:53:37.416Z,23.43
2018-10-11T11:56:07.028Z,23.35
2018-10-11T11:58:37.048Z,23.38
2018-10-11T12:01:06.673Z,23.57
2018-10-11T12:03:37.279Z,23.82
2018-10-11T12:06:07.044Z,24.13
2018-10-11T12:08:37.680Z,24.17
2018-10-11T12:11:07.690Z,24.37
2018-10-11T12:13:37.272Z,24.42
2018-10-11T12:16:06.756Z,24.80
2018-10-11T12:18:36.890Z,25.10
2018-10-11T12:21:06.328Z,25.02
2018-10-11T12:23:36.900Z,25.40
2018-10-11T12:26:06.520Z,25.51
2018-10-11T12:28:37.214Z,25.95
2018-10-11T12:31:06.927Z,26.31
2018-10-11T12:33:37.064Z,26.61
2018-10-11T12:36:06.615Z,26.77
2018-10-11T12:38:37.151Z,26.89
2018-10-11T12:41:06.561Z,27.03
2018-10-11T12:43:37.172Z,26.87
2018-10-11T12:46:06.839Z,27.14
2018-10-11T12:48:37.056Z,26.89
2018-10-11T12:51:06.799Z,27.17
2018-10-11T12:53:39.883Z,27.03
2018-10-11T12:56:06.917Z,26.98
2018-10-11T12:58:37.139Z,27.21
2018-10-11T13:01:06.651Z,27.58
2018-10-11T13:03:37.079Z,27.63
2018-10-11T13:06:06.511Z,27.60
2018-10-11T13:08:37.200Z,27.49
2018-10-11T13:11:06.646Z,27.98
2018-10-11T13:13:37.319Z,28.36
2018-10-11T13:16:06.787Z,28.25
2018-10-11T13:18:37.301Z,28.59
2018-10-11T13:21:06.752Z,28.62
2018-10-11T13:23:37.347Z,28.22
2018-10-11T13:26:06.815Z,28.33
2018-10-11T13:28:37.524Z,28.95
2018-10-11T13:31:06.941Z,28.83
2018-10-11T13:33:37.555Z,28.25
2018-10-11T13:36:07.008Z,28.18
2018-10-11T13:38:37.494Z,28.37
2018-10-11T13:41:07.006Z,28.71
2018-10-11T13:43:37.751Z,28.42
2018-10-11T13:46:07.230Z,28.39
2018-10-11T13:48:37.690Z,28.29
2018-10-11T13:51:07.263Z,28.33
2018-10-11T13:53:38.173Z,27.77
2018-10-11T13:56:07.867Z,27.02
2018-10-11T13:58:37.662Z,26.73
2018-10-11T14:01:07.584Z,26.40
2018-10-11T14:03:37.864Z,26.11
2018-10-11T14:06:07.419Z,26.53
2018-10-11T14:08:38.079Z,26.81
2018-10-11T14:11:07.766Z,26.82
2018-10-11T14:13:38.693Z,27.32
2018-10-11T14:16:08.183Z,27.28
2018-10-11T14:18:38.663Z,27.34
2018-10-11T14:21:09.301Z,27.93
2018-10-11T14:23:38.932Z,29.09
2018-10-11T14:26:09.071Z,30.44
2018-10-11T14:28:38.330Z,30.72
2018-10-11T14:31:07.751Z,30.75
2018-10-11T14:33:38.231Z,31.19
2018-10-11T14:36:08.101Z,31.75
2018-10-11T14:38:38.134Z,32.20
2018-10-11T14:41:07.847Z,32.52
2018-10-11T14:43:39.584Z,32.32
2018-10-11T14:46:09.189Z,32.46
2018-10-11T14:48:38.751Z,30.76
2018-10-11T14:51:09.223Z,29.90
2018-10-11T14:53:38.687Z,29.84
2018-10-11T14:56:08.244Z,30.13
2018-10-11T14:58:38.482Z,30.20
2018-10-11T15:01:07.912Z,29.79
2018-10-11T15:03:38.368Z,28.41
2018-10-11T15:06:07.641Z,27.12
2018-10-11T15:08:38.323Z,26.09
2018-10-11T15:11:08.120Z,25.36
2018-10-11T15:13:38.380Z,25.20
2018-10-11T15:16:07.909Z,25.01
2018-10-11T15:18:39.432Z,24.72
2018-10-11T15:21:09.267Z,24.45
2018-10-11T15:23:38.715Z,24.24
2018-10-11T15:26:08.192Z,24.09
2018-10-11T15:28:38.479Z,24.08
2018-10-11T15:31:07.901Z,24.23
2018-10-11T15:33:38.411Z,24.53
2018-10-11T15:36:07.915Z,24.46
2018-10-11T15:38:38.512Z,24.27
2018-10-11T15:41:07.924Z,24.03
2018-10-11T15:43:38.425Z,23.82
2018-10-11T15:46:08.177Z,23.56
2018-10-11T15:48:38.379Z,23.40
2018-10-11T15:51:07.855Z,23.22
2018-10-11T15:53:41.013Z,23.01
2018-10-11T15:56:10.436Z,22.76
2018-10-11T15:58:39.925Z,22.60
2018-10-11T16:01:09.291Z,22.46
2018-10-11T16:03:38.717Z,22.27
2018-10-11T16:06:08.319Z,22.05
2018-10-11T16:08:38.438Z,21.83
2018-10-11T16:11:07.888Z,21.67
2018-10-11T16:13:38.537Z,21.44
2018-10-11T16:16:07.989Z,21.25
2018-10-11T16:18:38.463Z,21.07
2018-10-11T16:21:08.040Z,20.91
2018-10-11T16:23:38.488Z,20.73
2018-10-11T16:26:07.904Z,20.59
2018-10-11T16:28:38.623Z,20.37
2018-10-11T16:31:08.031Z,20.24
2018-10-11T16:33:38.432Z,20.13
2018-10-11T16:36:07.961Z,20.03
2018-10-11T16:38:38.567Z,19.89
2018-10-11T16:41:08.006Z,19.61
2018-10-11T16:43:38.484Z,19.19
2018-10-11T16:46:07.991Z,19.11
2018-10-11T16:48:38.387Z,19.11
2018-10-11T16:51:07.900Z,19.12
2018-10-11T16:53:38.392Z,19.11
2018-10-11T16:56:07.854Z,19.11
2018-10-11T16:58:38.500Z,19.05
2018-10-11T17:01:08.347Z,19.00
2018-10-11T17:03:38.422Z,18.92
2018-10-11T17:06:07.976Z,18.81
2018-10-11T17:08:38.444Z,18.74
2018-10-11T17:11:08.097Z,18.60
2018-10-11T17:13:38.467Z,18.45
2018-10-11T17:16:07.976Z,18.26
2018-10-11T17:18:38.456Z,18.04
2018-10-11T17:21:07.980Z,17.82
2018-10-11T17:23:38.656Z,17.76
2018-10-11T17:26:08.109Z,17.75
2018-10-11T17:28:38.608Z,17.70
2018-10-11T17:31:08.328Z,17.69
2018-10-11T17:33:38.707Z,17.61
2018-10-11T17:36:08.124Z,17.61
2018-10-11T17:38:38.785Z,17.60
2018-10-11T17:41:08.368Z,17.63
2018-10-11T17:43:38.602Z,17.63
2018-10-11T17:46:08.348Z,17.60
2018-10-11T17:48:39.113Z,17.55
2018-10-11T17:51:08.781Z,17.47
2018-10-11T17:53:39.269Z,17.23
2018-10-11T17:56:09.280Z,17.17
2018-10-11T17:58:39.232Z,17.17
2018-10-11T18:01:08.788Z,17.14
2018-10-11T18:03:39.701Z,17.07
2018-10-11T18:06:10.156Z,17.07
2018-10-11T18:08:41.563Z,17.04
2018-10-11T18:11:12.930Z,17.04
2018-10-11T18:13:45.440Z,16.94
2018-10-11T18:16:16.824Z,16.79
2018-10-11T18:18:49.171Z,16.73
2018-10-11T18:21:21.685Z,16.60
2018-10-11T18:23:54.228Z,16.50
2018-10-11T18:26:25.499Z,16.46
2018-10-11T18:28:57.740Z,16.45
2018-10-11T18:31:30.038Z,16.43
2018-10-11T18:34:02.711Z,16.41
2018-10-11T18:36:35.261Z,16.40
2018-10-11T18:39:13.550Z,16.36
2018-10-11T18:41:46.537Z,16.26
2018-10-11T18:44:18.921Z,16.16
2018-10-11T18:46:51.427Z,16.08
2018-10-11T18:49:24.057Z,16.01
2018-10-11T18:51:56.731Z,15.96
2018-10-11T18:54:29.422Z,15.92
2018-10-11T18:57:02.004Z,15.72
2018-10-11T18:59:34.480Z,15.69
2018-10-11T19:02:06.906Z,15.69
2018-10-11T19:04:39.503Z,15.61
2018-10-11T19:07:12.268Z,15.59
2018-10-11T19:09:44.870Z,15.59
2018-10-11T19:12:17.420Z,15.50
2018-10-11T19:14:49.956Z,15.54
2018-10-11T19:17:23.347Z,15.51
2018-10-11T19:19:56.306Z,15.58
2018-10-11T19:22:28.798Z,15.62
2018-10-11T19:25:01.353Z,15.64
2018-10-11T19:27:34.168Z,15.53
2018-10-11T19:30:08.080Z,15.69
2018-10-11T19:32:40.756Z,15.68
2018-10-11T19:35:13.567Z,15.74
2018-10-11T19:37:45.931Z,15.72
2018-10-11T19:40:18.523Z,15.72
2018-10-11T19:42:51.066Z,15.69
2018-10-11T19:45:24.035Z,15.67
2018-10-11T19:47:56.519Z,15.61
2018-10-11T19:50:29.070Z,15.60
2018-10-11T19:53:01.551Z,15.46
2018-10-11T19:55:34.288Z,15.33
2018-10-11T19:58:06.879Z,15.37
2018-10-11T20:00:39.605Z,15.36
2018-10-11T20:03:13.284Z,15.40
2018-10-11T20:05:45.834Z,15.41
2018-10-11T20:08:18.635Z,15.43
2018-10-11T20:10:51.137Z,15.23
2018-10-11T20:13:23.848Z,15.33
2018-10-11T20:15:56.956Z,15.32
2018-10-11T20:18:29.352Z,15.33
2018-10-11T20:21:02.163Z,15.29
2018-10-11T20:23:35.120Z,15.26
2018-10-11T20:26:07.721Z,15.11
2018-10-11T20:33:46.256Z,14.92
2018-10-11T20:36:18.792Z,15.00
2018-10-11T20:38:51.588Z,14.98
2018-10-11T20:41:24.342Z,15.02
2018-10-11T20:43:57.092Z,15.06
2018-10-11T20:46:30.045Z,15.12
2018-10-11T20:49:02.826Z,15.18
2018-10-11T20:51:35.406Z,15.21
2018-10-11T20:54:08.551Z,15.20
2018-10-11T20:56:42.876Z,15.17
2018-10-11T20:59:15.730Z,15.11
2018-10-11T21:01:48.527Z,15.01
2018-10-11T21:04:21.412Z,14.84
2018-10-11T21:06:54.161Z,14.77
2018-10-11T21:09:27.030Z,14.76
2018-10-11T21:11:59.583Z,14.80
2018-10-11T21:14:32.822Z,14.77
2018-10-11T21:17:05.693Z,14.76
2018-10-11T21:19:37.842Z,14.74
2018-10-11T21:22:09.969Z,14.69
2018-10-11T21:24:40.139Z,14.61
2018-10-11T21:27:09.804Z,14.46
2018-10-11T21:29:39.437Z,14.17
2018-10-11T21:32:09.223Z,14.11
2018-10-11T21:34:39.287Z,14.15
2018-10-11T21:37:09.235Z,14.22
2018-10-11T21:39:39.212Z,14.24
2018-10-11T21:42:09.346Z,14.24
2018-10-11T21:44:39.485Z,14.19
2018-10-11T21:47:09.869Z,14.08
2018-10-11T21:49:40.479Z,14.20
2018-10-11T21:52:10.848Z,14.17
2018-10-11T21:54:41.171Z,13.71
2018-10-11T21:57:10.828Z,14.12
2018-10-11T21:59:40.480Z,14.15
2018-10-11T22:02:10.087Z,14.14
2018-10-11T22:04:40.141Z,14.16
2018-10-11T22:07:10.253Z,14.12
2018-10-11T22:09:39.872Z,14.10
2018-10-11T22:12:09.669Z,14.10
2018-10-11T22:14:39.339Z,14.08
2018-10-11T22:17:09.040Z,14.09
2018-10-11T22:19:38.707Z,14.11
2018-10-11T22:22:08.316Z,14.07
2018-10-11T22:24:37.934Z,14.07
2018-10-11T22:27:07.580Z,14.03
2018-10-11T22:29:37.245Z,13.87
2018-10-11T22:32:06.889Z,13.89
2018-10-11T22:34:36.543Z,13.93
2018-10-11T22:37:06.218Z,13.98
2018-10-11T22:39:35.969Z,14.00
2018-10-11T22:42:05.740Z,13.33
2018-10-11T22:44:35.536Z,13.96
2018-10-11T22:47:05.188Z,13.95
2018-10-11T22:49:34.826Z,13.93
2018-10-11T22:52:04.515Z,13.87
2018-10-11T22:54:34.275Z,13.84
2018-10-11T22:57:03.968Z,13.81
2018-10-11T22:59:33.644Z,13.76
2018-10-11T23:02:03.339Z,13.72
2018-10-11T23:04:33.098Z,13.68
2018-10-11T23:07:02.828Z,13.42
2018-10-11T23:09:32.518Z,13.39
2018-10-11T23:12:02.256Z,13.19
2018-10-11T23:14:32.057Z,13.25
2018-10-11T23:17:01.680Z,13.20
2018-10-11T23:19:31.387Z,13.15
2018-10-11T23:22:01.253Z,13.00
2018-10-11T23:24:30.936Z,13.01
2018-10-11T23:27:00.606Z,12.99
2018-10-11T23:29:30.285Z,12.88
2018-10-11T23:31:59.901Z,12.86
2018-10-11T23:34:29.520Z,12.86
2018-10-11T23:36:59.314Z,12.85
2018-10-11T23:39:29.084Z,12.83
2018-10-11T23:41:58.947Z,12.78
2018-10-11T23:44:28.743Z,12.74
2018-10-11T23:46:58.496Z,12.74
2018-10-11T23:49:28.342Z,12.68
2018-10-11T23:51:57.919Z,12.62
2018-10-11T23:54:27.651Z,12.53
2018-10-11T23:56:57.349Z,12.49
2018-10-11T23:59:27.089Z,12.46
